Time;durP1;ratioP1;P1;durP2;ratioP2;P2;SDS_P1;SDS_P2;PMS_P1;PMS_P2;Temp;Humidity;BMP_temperature;BMP_pressure;BME280_temperature;BME280_humidity;BME280_pressure;Samples;Min_cycle;Max_cycle;Signal;HPM_P1;HPM_P2
2022/10/11 06:28:25;;;;;;;;;3.67;1.00;;;;;17.87;56.77;102136.53;5143725;27;45966;-75
2022/10/11 06:30:51;;;;;;;;;1.00;1.00;;;;;18.03;56.93;102140.97;5123672;27;45419;-77
2022/10/11 06:33:16;;;;;;;;;1.00;1.00;;;;;18.23;56.74;102147.75;5121777;27;45568;-78
2022/10/11 06:35:41;;;;;;;;;2.00;1.00;;;;;18.47;56.54;102147.13;5128473;27;46124;-77
2022/10/11 06:38:07;;;;;;;;;1.00;1.00;;;;;18.76;56.25;102146.19;5128721;27;49501;-77
2022/10/11 06:40:32;;;;;;;;;1.33;1.00;;;;;19.05;56.14;102144.22;5122077;27;45367;-78
2022/10/11 06:42:57;;;;;;;;;2.00;2.00;;;;;19.36;55.76;102149.34;5128543;27;49477;-76
2022/10/11 06:45:23;;;;;;;;;1.00;1.00;;;;;19.68;55.54;102148.91;5117114;27;47605;-76
2022/10/11 06:47:48;;;;;;;;;0.00;0.00;;;;;19.97;54.65;102148.69;5124083;27;46298;-77
2022/10/11 06:50:13;;;;;;;;;2.00;2.00;;;;;20.28;54.70;102156.41;5128000;27;60086;-76
2022/10/11 06:52:38;;;;;;;;;2.33;1.00;;;;;20.53;54.25;102158.13;5117221;27;45614;-76
2022/10/11 06:55:04;;;;;;;;;1.00;1.00;;;;;20.83;53.46;102152.38;5117707;27;45619;-76
2022/10/11 06:57:29;;;;;;;;;1.33;0.00;;;;;21.08;53.24;102153.25;5123174;27;45502;-76
2022/10/11 06:59:55;;;;;;;;;2.00;2.00;;;;;21.29;53.03;102165.09;5121679;27;49320;-76
2022/10/11 07:02:20;;;;;;;;;2.67;1.67;;;;;21.50;52.58;102158.13;5123082;27;45416;-76
2022/10/11 07:04:45;;;;;;;;;1.00;0.00;;;;;21.68;52.51;102158.50;5114075;27;45696;-77
2022/10/11 07:07:14;;;;;;;;;3.00;1.33;;;;;21.83;52.01;102160.03;5128377;27;50164;-79
2022/10/11 07:09:39;;;;;;;;;1.67;1.00;;;;;21.97;51.57;102160.75;5116351;27;45747;-79
2022/10/11 07:12:05;;;;;;;;;0.00;0.00;;;;;22.13;51.44;102163.09;5117678;27;45497;-79
2022/10/11 07:14:30;;;;;;;;;0.67;0.67;;;;;22.26;51.20;102168.34;5120457;27;45516;-79
2022/10/11 07:16:56;;;;;;;;;0.00;0.00;;;;;22.38;50.96;102167.34;5110269;27;53016;-79
2022/10/11 07:19:22;;;;;;;;;0.67;0.00;;;;;22.48;51.03;102170.13;5131376;27;45554;-78
2022/10/11 07:21:47;;;;;;;;;0.33;0.33;;;;;22.59;50.36;102166.59;5129486;27;45388;-78
2022/10/11 07:24:13;;;;;;;;;0.67;0.00;;;;;22.69;50.42;102163.97;5128732;27;45447;-78
2022/10/11 07:26:38;;;;;;;;;0.00;0.00;;;;;22.80;50.14;102173.03;5121601;27;45454;-78
2022/10/11 07:29:04;;;;;;;;;0.33;0.33;;;;;22.90;49.91;102180.25;5121099;27;45365;-78
2022/10/11 07:31:30;;;;;;;;;1.00;1.00;;;;;22.99;49.72;102180.47;5126792;27;45570;-79
2022/10/11 07:33:56;;;;;;;;;0.33;0.33;;;;;23.10;49.70;102182.25;5126308;27;45478;-78
2022/10/11 07:36:22;;;;;;;;;3.33;2.00;;;;;23.16;49.52;102179.88;5126012;27;45341;-78
2022/10/11 07:38:49;;;;;;;;;1.00;1.00;;;;;23.26;49.26;102193.47;5112754;27;45544;-77
2022/10/11 07:41:15;;;;;;;;;1.00;1.00;;;;;23.38;49.25;102194.31;5112255;27;45523;-77
2022/10/11 07:43:42;;;;;;;;;2.00;1.00;;;;;23.43;49.01;102194.78;5107720;27;45608;-79
2022/10/11 07:46:08;;;;;;;;;1.00;1.00;;;;;23.53;49.06;102199.41;5102444;27;46081;-79
2022/10/11 07:48:35;;;;;;;;;1.00;1.00;;;;;23.60;48.90;102205.16;5107764;27;45852;-78
2022/10/11 07:51:06;;;;;;;;;1.00;1.00;;;;;23.69;48.48;102209.75;5108863;27;45617;-79
2022/10/11 07:53:31;;;;;;;;;0.00;0.00;;;;;23.72;48.73;102203.22;5114779;27;45457;-80
2022/10/11 07:56:00;;;;;;;;;1.00;0.33;;;;;23.75;48.06;102208.38;5117707;27;45350;-80
2022/10/11 07:58:26;;;;;;;;;0.33;0.33;;;;;23.74;48.13;102204.78;5099295;27;45463;-80
2022/10/11 08:00:52;;;;;;;;;0.67;0.67;;;;;23.76;47.97;102213.66;5086171;27;55549;-79
2022/10/11 08:03:17;;;;;;;;;0.00;0.00;;;;;23.80;48.11;102206.13;5107495;27;45430;-79
2022/10/11 08:05:43;;;;;;;;;0.00;0.00;;;;;23.83;48.22;102208.56;5110855;27;45931;-80
2022/10/11 08:08:08;;;;;;;;;0.67;0.67;;;;;23.87;48.11;102211.84;5112338;27;45457;-76
2022/10/11 08:10:39;;;;;;;;;1.00;1.00;;;;;23.90;48.17;102217.00;5110442;27;56885;-76
2022/10/11 08:13:05;;;;;;;;;1.00;1.00;;;;;23.94;48.19;102211.19;5117188;27;45389;-77
2022/10/11 08:15:30;;;;;;;;;1.00;1.00;;;;;24.02;48.06;102220.47;5116929;27;45442;-76
2022/10/11 08:17:55;;;;;;;;;0.33;0.33;;;;;24.07;47.90;102220.91;5106713;27;58979;-76
2022/10/11 08:20:21;;;;;;;;;0.33;0.33;;;;;24.13;47.79;102223.13;5095667;27;45819;-76
2022/10/11 08:22:46;;;;;;;;;2.00;1.00;;;;;24.18;45.99;102228.13;5110911;27;45446;-79
2022/10/11 08:25:11;;;;;;;;;3.00;1.00;;;;;24.15;45.07;102226.56;5107203;27;46044;-80
2022/10/11 08:27:37;;;;;;;;;1.00;1.00;;;;;24.09;44.92;102235.25;5108955;27;45641;-76
2022/10/11 08:30:04;;;;;;;;;0.00;0.00;;;;;24.04;45.22;102226.63;5105938;27;45442;-76
2022/10/11 08:32:29;;;;;;;;;1.00;1.00;;;;;23.99;45.42;102232.44;5108460;27;46258;-73
2022/10/11 08:34:54;;;;;;;;;1.00;1.00;;;;;24.00;45.53;102234.19;5108250;27;45407;-77
2022/10/11 08:37:20;;;;;;;;;2.67;2.67;;;;;24.04;45.54;102229.34;5097719;27;45389;-76
2022/10/11 08:39:45;;;;;;;;;1.00;1.00;;;;;24.07;45.67;102223.63;5116008;27;45463;-76
2022/10/11 08:42:37;;;;;;;;;0.00;0.00;;;;;24.13;45.77;102233.13;5110669;27;59742;-75
2022/10/11 08:45:16;;;;;;;;;2.00;1.33;;;;;24.17;45.77;102231.84;5111329;27;46117;-76
2022/10/11 08:47:44;;;;;;;;;1.67;1.33;;;;;24.23;45.70;102228.59;5111833;27;45394;-77
2022/10/11 08:50:21;;;;;;;;;3.00;1.00;;;;;24.28;46.10;102236.31;5116269;27;45464;-74
2022/10/11 08:53:02;;;;;;;;;1.33;1.00;;;;;24.36;46.08;102233.75;5116107;27;45397;-75
2022/10/11 08:55:40;;;;;;;;;0.67;0.00;;;;;24.45;46.20;102238.34;5098632;27;45973;-76
2022/10/11 08:58:10;;;;;;;;;0.00;0.00;;;;;24.53;45.98;102237.69;5110224;27;45495;-76
2022/10/11 09:00:37;;;;;;;;;3.00;2.00;;;;;24.61;45.87;102237.81;5116371;27;45472;-75
2022/10/11 09:03:28;;;;;;;;;1.00;1.00;;;;;24.70;45.83;102244.28;5116224;27;45462;-75
2022/10/11 09:06:22;;;;;;;;;0.33;0.33;;;;;24.79;45.87;102236.28;5114632;27;46059;-74
2022/10/11 09:09:16;;;;;;;;;2.33;0.33;;;;;24.84;45.80;102234.91;5104717;27;45334;-76
2022/10/11 09:11:59;;;;;;;;;1.00;1.00;;;;;24.89;45.97;102231.75;5112873;27;45751;-76
2022/10/11 09:14:49;;;;;;;;;1.00;1.00;;;;;24.93;45.61;102230.47;5114921;27;45452;-76
2022/10/11 09:17:33;;;;;;;;;0.67;0.67;;;;;24.97;45.80;102234.63;5108203;27;45502;-78
2022/10/11 09:20:20;;;;;;;;;0.00;0.00;;;;;24.98;45.72;102228.19;5098209;27;45459;-75
2022/10/11 09:23:30;;;;;;;;;0.00;0.00;;;;;25.01;45.71;102232.47;5115478;27;45368;-76
2022/10/11 09:26:06;;;;;;;;;2.33;0.33;;;;;25.05;45.73;102242.06;5107412;27;45429;-75
2022/10/11 09:28:42;;;;;;;;;0.00;0.00;;;;;25.05;45.72;102239.34;5115566;27;45395;-75
2022/10/11 09:31:09;;;;;;;;;1.00;1.00;;;;;25.09;46.08;102235.34;5109671;27;45456;-77
2022/10/11 09:33:48;;;;;;;;;1.00;1.00;;;;;25.13;45.71;102230.47;5109848;27;45522;-77
2022/10/11 09:36:38;;;;;;;;;1.00;1.00;;;;;25.18;45.79;102228.19;5113119;27;45458;-77
2022/10/11 09:39:14;;;;;;;;;0.00;0.00;;;;;25.25;45.46;102233.88;5113250;27;46249;-76
2022/10/11 09:42:04;;;;;;;;;1.33;1.33;;;;;25.31;45.72;102236.06;5103450;27;45485;-76
2022/10/11 09:44:45;;;;;;;;;0.00;0.00;;;;;25.37;45.51;102221.88;5111243;27;45580;-77
2022/10/11 09:47:31;;;;;;;;;1.00;1.00;;;;;25.43;45.64;102220.44;5107531;27;45309;-74
2022/10/11 09:49:59;;;;;;;;;0.00;0.00;;;;;25.47;45.81;102224.56;5112914;27;45932;-77
2022/10/11 09:52:26;;;;;;;;;1.00;1.00;;;;;25.51;45.47;102227.88;5112191;27;45475;-75
2022/10/11 09:54:59;;;;;;;;;1.00;1.00;;;;;25.51;45.32;102222.44;5112875;27;45755;-77
2022/10/11 09:57:30;;;;;;;;;1.33;1.00;;;;;25.52;45.01;102214.13;5112202;27;45457;-76
2022/10/11 10:00:22;;;;;;;;;1.00;1.00;;;;;25.56;44.88;102208.41;5090008;27;47958;-77
2022/10/11 10:02:56;;;;;;;;;2.00;1.00;;;;;25.51;44.05;102215.13;5090098;27;45505;-80
2022/10/11 10:05:24;;;;;;;;;1.00;1.00;;;;;25.41;44.21;102194.41;5109569;27;45268;-81
2022/10/11 10:07:59;;;;;;;;;1.00;1.00;;;;;25.44;44.08;102203.13;5115388;27;45623;-83
2022/10/11 10:10:30;;;;;;;;;2.00;2.00;;;;;25.43;43.93;102203.28;5113234;27;45517;-83
2022/10/11 10:12:58;;;;;;;;;3.00;2.00;;;;;25.44;44.08;102214.00;5112834;27;45318;-82
2022/10/11 10:15:29;;;;;;;;;2.33;1.00;;;;;25.46;44.12;102213.88;5110326;27;45772;-81
2022/10/11 10:17:55;;;;;;;;;1.00;1.00;;;;;25.45;44.13;102207.56;5111434;27;45518;-81
2022/10/11 10:20:24;;;;;;;;;0.00;0.00;;;;;25.47;43.94;102207.41;5114534;27;45412;-81
2022/10/11 10:22:50;;;;;;;;;4.33;2.67;;;;;25.48;43.77;102209.13;5107562;27;45806;-75
2022/10/11 10:25:41;;;;;;;;;3.00;1.33;;;;;25.46;42.32;102205.72;5116134;27;45459;-75
2022/10/11 10:28:24;;;;;;;;;2.33;1.00;;;;;25.37;42.03;102201.97;5112275;27;45898;-75
2022/10/11 10:30:59;;;;;;;;;4.67;2.67;;;;;25.31;42.30;102199.84;5105054;27;46118;-75
2022/10/11 10:33:29;;;;;;;;;1.00;1.00;;;;;25.25;42.21;102214.88;5105898;27;45495;-74
2022/10/11 10:36:11;;;;;;;;;1.00;1.00;;;;;25.19;42.35;102210.91;5115408;27;45806;-74
2022/10/11 10:38:46;;;;;;;;;1.00;1.00;;;;;25.17;42.37;102203.91;5116139;27;45336;-74
2022/10/11 10:41:15;;;;;;;;;2.00;2.00;;;;;25.16;42.39;102210.31;5111798;27;46447;-75
2022/10/11 10:43:44;;;;;;;;;1.00;1.00;;;;;25.09;42.20;102208.16;5115818;27;45373;-74
2022/10/11 10:46:21;;;;;;;;;1.00;1.00;;;;;25.03;42.34;102200.59;5115266;27;45418;-74
2022/10/11 10:49:05;;;;;;;;;1.00;1.00;;;;;24.96;42.27;102207.59;5115384;27;45317;-77
2022/10/11 10:51:52;;;;;;;;;1.00;1.00;;;;;24.90;42.36;102219.91;5110376;27;45400;-75
2022/10/11 10:54:46;;;;;;;;;1.00;1.00;;;;;24.90;42.96;102205.47;5102101;27;45429;-75
2022/10/11 10:57:33;;;;;;;;;1.33;1.33;;;;;24.93;42.72;102199.75;5105958;27;45339;-76
2022/10/11 11:00:19;;;;;;;;;2.00;2.00;;;;;24.98;42.93;102203.72;5112913;27;45436;-75
2022/10/11 11:03:01;;;;;;;;;1.00;1.00;;;;;25.02;43.34;102198.91;5105403;27;46096;-75
2022/10/11 11:05:33;;;;;;;;;3.00;1.33;;;;;25.10;42.93;102195.47;5077319;27;45367;-75
2022/10/11 11:08:25;;;;;;;;;0.67;0.67;;;;;25.16;43.13;102199.44;5111297;27;45508;-74
2022/10/11 11:11:16;;;;;;;;;2.00;2.00;;;;;25.23;42.84;102195.16;5110878;27;45406;-75
2022/10/11 11:13:56;;;;;;;;;1.00;1.00;;;;;25.29;43.08;102191.84;5104695;27;45336;-73
2022/10/11 11:16:30;;;;;;;;;2.67;2.67;;;;;25.37;42.52;102191.97;5096969;27;45893;-76
2022/10/11 11:19:04;;;;;;;;;2.67;2.67;;;;;25.41;41.72;102189.81;5115354;27;45671;-77
2022/10/11 11:21:48;;;;;;;;;2.67;2.33;;;;;25.48;41.85;102190.09;5118912;27;45613;-76
2022/10/11 11:24:32;;;;;;;;;2.00;2.00;;;;;25.53;41.88;102180.50;5114397;27;45500;-76
2022/10/11 11:27:07;;;;;;;;;4.00;2.00;;;;;25.56;41.53;102192.09;5117851;27;45489;-76
2022/10/11 11:30:03;;;;;;;;;2.33;1.00;;;;;25.56;41.68;102181.22;5113318;27;45465;-77
2022/10/11 11:33:01;;;;;;;;;1.33;1.33;;;;;25.55;41.60;102176.78;5110045;27;45381;-77
2022/10/11 11:35:36;;;;;;;;;2.00;2.00;;;;;25.53;41.01;102180.50;5013904;28;45578;-78
2022/10/11 11:38:13;;;;;;;;;4.33;1.33;;;;;25.48;41.37;102171.06;5003150;28;45480;-78
2022/10/11 11:40:43;;;;;;;;;2.00;2.00;;;;;25.43;41.58;102171.53;5013914;28;45480;-78
2022/10/11 11:43:35;;;;;;;;;2.33;2.33;;;;;25.42;41.19;102169.78;5013680;28;45402;-77
2022/10/11 11:46:17;;;;;;;;;2.33;2.33;;;;;25.37;41.32;102175.69;4998405;28;45563;-77
2022/10/11 11:48:43;;;;;;;;;2.00;2.00;;;;;25.35;41.23;102164.09;5013007;28;46962;-78
2022/10/11 11:51:16;;;;;;;;;1.00;1.00;;;;;25.32;41.70;102167.09;5013019;28;45767;-77
2022/10/11 11:54:00;;;;;;;;;1.00;1.00;;;;;25.30;41.32;102169.09;5013733;28;45433;-76
2022/10/11 11:56:32;;;;;;;;;2.00;2.00;;;;;25.29;41.23;102167.38;5011864;28;46253;-76
2022/10/11 11:59:08;;;;;;;;;3.00;3.00;;;;;25.30;41.45;102169.09;5007318;28;45733;-76
2022/10/11 12:01:48;;;;;;;;;3.00;1.00;;;;;25.28;41.46;102160.25;5014529;28;45500;-76
2022/10/11 12:04:19;;;;;;;;;1.67;1.67;;;;;25.28;41.52;102165.69;5012604;28;45488;-76
2022/10/11 12:07:09;;;;;;;;;4.33;3.00;;;;;25.29;41.43;102155.69;5004894;28;45430;-76
2022/10/11 12:09:36;;;;;;;;;2.00;2.00;;;;;25.26;41.55;102152.25;5011423;28;45486;-76
2022/10/11 12:12:24;;;;;;;;;2.00;2.00;;;;;25.25;41.05;102152.38;5064709;27;45378;-76
2022/10/11 12:15:00;;;;;;;;;1.00;1.00;;;;;25.28;41.26;102138.50;5112677;27;45466;-78
2022/10/11 12:17:26;;;;;;;;;2.00;2.00;;;;;25.32;41.64;102137.22;5095209;27;47368;-78
2022/10/11 12:20:07;;;;;;;;;3.67;2.67;;;;;25.33;41.42;102143.50;5117082;27;45487;-80
2022/10/11 12:22:33;;;;;;;;;3.00;3.00;;;;;25.27;41.44;102134.09;5113895;27;45410;-83
2022/10/11 12:24:59;;;;;;;;;4.00;2.33;;;;;25.22;41.56;102131.78;5118061;27;45365;-81
2022/10/11 12:27:56;;;;;;;;;2.33;2.33;;;;;25.19;41.70;102126.66;5112745;27;47696;-81
2022/10/11 12:30:43;;;;;;;;;3.00;3.00;;;;;25.21;42.14;102131.94;5097643;27;45406;-78
2022/10/11 12:33:17;;;;;;;;;3.00;1.00;;;;;25.24;42.46;102128.94;5104606;27;45504;-82
2022/10/11 12:35:54;;;;;;;;;3.67;3.33;;;;;25.26;42.32;102133.22;5114385;27;45769;-78
2022/10/11 12:38:22;;;;;;;;;2.00;2.00;;;;;25.30;42.64;102131.06;5116994;27;46264;-80
2022/10/11 12:40:53;;;;;;;;;2.33;2.33;;;;;25.36;42.55;102126.91;5117504;27;45480;-80
2022/10/11 12:43:25;;;;;;;;;2.33;2.33;;;;;25.39;42.43;102127.44;5114225;27;45516;-81
2022/10/11 12:45:51;;;;;;;;;4.00;2.00;;;;;25.45;42.66;102120.56;5113900;27;45483;-76
2022/10/11 12:48:28;;;;;;;;;2.33;2.00;;;;;25.51;42.76;102121.84;5116354;27;45382;-75
2022/10/11 12:50:53;;;;;;;;;4.67;3.67;;;;;25.56;42.53;102116.84;5095001;27;45514;-83
2022/10/11 12:53:39;;;;;;;;;2.33;2.33;;;;;25.61;43.00;102116.41;5115357;27;45432;-82
2022/10/11 12:56:13;;;;;;;;;4.00;2.00;;;;;25.70;42.87;102109.22;5116908;27;45405;-81
2022/10/11 12:58:45;;;;;;;;;3.00;1.33;;;;;25.72;42.86;102105.34;5117063;27;45840;-81
2022/10/11 13:01:16;;;;;;;;;3.00;2.00;;;;;25.77;43.04;102099.44;5117411;27;45567;-80
2022/10/11 13:03:47;;;;;;;;;3.67;1.00;;;;;25.83;42.97;102098.00;5117157;27;45451;-79
2022/10/11 13:06:20;;;;;;;;;3.00;3.00;;;;;25.87;43.24;102102.97;5106909;27;45521;-80
2022/10/11 13:09:08;;;;;;;;;1.67;1.67;;;;;25.92;42.70;102100.63;5116734;27;45417;-79
2022/10/11 13:11:39;;;;;;;;;4.00;4.00;;;;;25.96;43.17;102095.78;5103004;27;45454;-79
2022/10/11 13:14:13;;;;;;;;;2.67;2.67;;;;;26.02;42.67;102102.44;5109167;27;45425;-80
2022/10/11 13:16:57;;;;;;;;;3.33;2.00;;;;;26.04;43.03;102095.00;5103424;27;45730;-79
2022/10/11 13:19:23;;;;;;;;;2.00;2.00;;;;;26.05;43.29;102091.28;5111333;27;46050;-78
2022/10/11 13:21:53;;;;;;;;;2.00;2.00;;;;;26.12;42.64;102105.13;5117125;27;45452;-79
2022/10/11 13:24:19;;;;;;;;;3.00;3.00;;;;;26.17;43.03;102100.06;5105938;27;45402;-79
2022/10/11 13:26:47;;;;;;;;;2.33;2.33;;;;;26.22;43.28;102100.47;5104949;27;45430;-79
2022/10/11 13:29:34;;;;;;;;;5.00;3.33;;;;;26.29;42.86;102090.69;5113265;27;45442;-79
2022/10/11 13:32:04;;;;;;;;;3.33;3.33;;;;;26.36;43.13;102090.09;5116997;27;46032;-79
2022/10/11 13:34:35;;;;;;;;;2.67;2.00;;;;;26.39;43.08;102079.75;5106678;27;45343;-78
2022/10/11 13:37:01;;;;;;;;;2.67;1.67;;;;;26.45;42.56;102075.53;5102032;27;45929;-79
2022/10/11 13:39:29;;;;;;;;;2.33;2.33;;;;;26.50;42.74;102073.22;5116338;27;46222;-77
2022/10/11 13:41:56;;;;;;;;;4.33;3.00;;;;;26.56;42.15;102077.16;5110711;27;45476;-78
2022/10/11 13:44:23;;;;;;;;;2.67;2.67;;;;;26.60;42.20;102070.38;5116701;27;45403;-83
2022/10/11 13:46:49;;;;;;;;;4.33;2.00;;;;;26.63;42.17;102075.53;5097540;27;45481;-81
2022/10/11 13:49:39;;;;;;;;;3.33;2.00;;;;;26.67;42.48;102068.75;5114203;27;45449;-83
2022/10/11 13:52:16;;;;;;;;;2.00;2.00;;;;;26.70;42.19;102073.03;5112182;27;45481;-83
2022/10/11 13:54:53;;;;;;;;;3.33;2.00;;;;;26.73;42.56;102064.53;5116248;27;45413;-78
2022/10/11 13:57:34;;;;;;;;;4.67;3.33;;;;;26.72;40.82;102064.72;5112250;27;45509;-76
2022/10/11 14:00:01;;;;;;;;;3.67;3.67;;;;;26.78;40.83;102053.16;5116614;27;45369;-76
2022/10/11 14:02:28;;;;;;;;;5.00;4.00;;;;;26.82;40.38;102060.00;5115030;27;45479;-75
2022/10/11 14:04:54;;;;;;;;;2.00;2.00;;;;;26.80;39.85;102056.56;5111616;27;45449;-74
2022/10/11 14:07:36;;;;;;;;;2.67;2.67;;;;;26.79;40.13;102053.00;5111601;27;45583;-73
2022/10/11 14:10:03;;;;;;;;;4.33;4.00;;;;;26.73;39.91;102056.34;5115761;27;45999;-75
2022/10/11 14:12:43;;;;;;;;;6.00;4.67;;;;;26.68;39.31;102058.69;5115397;27;45571;-75
2022/10/11 14:15:35;;;;;;;;;4.33;4.33;;;;;26.61;39.32;102060.34;5114409;27;45987;-75
2022/10/11 14:18:22;;;;;;;;;3.33;3.33;;;;;26.55;39.34;102059.09;5114751;27;45750;-75
2022/10/11 14:20:47;;;;;;;;;4.00;4.00;;;;;26.46;39.45;102051.88;5106455;27;46042;-75
2022/10/11 14:23:13;;;;;;;;;4.33;3.00;;;;;26.37;39.96;102056.41;5094269;27;45520;-75
2022/10/11 14:25:38;;;;;;;;;6.00;4.67;;;;;26.24;40.28;102057.59;5104399;27;45482;-75
2022/10/11 14:28:08;;;;;;;;;7.00;4.33;;;;;26.15;40.29;102053.97;5109648;27;48776;-74
2022/10/11 14:30:34;;;;;;;;;5.33;5.33;;;;;26.03;40.43;102053.34;5110522;27;45584;-74
2022/10/11 14:33:01;;;;;;;;;3.67;3.67;;;;;25.97;40.58;102050.38;5113201;27;45631;-72
2022/10/11 14:35:30;;;;;;;;;4.67;4.67;;;;;25.91;40.64;102043.66;5089632;27;45722;-74
2022/10/11 14:37:56;;;;;;;;;4.33;4.33;;;;;25.91;41.51;102049.09;5089368;27;45394;-74
2022/10/11 14:40:25;;;;;;;;;4.33;4.00;;;;;25.90;41.23;102050.13;5099817;27;45927;-75
2022/10/11 14:42:50;;;;;;;;;3.67;3.67;;;;;25.90;41.35;102059.16;5109009;27;45476;-74
2022/10/11 14:45:17;;;;;;;;;5.67;4.33;;;;;25.91;41.31;102054.53;5108171;27;45801;-74
2022/10/11 14:47:43;;;;;;;;;4.67;4.67;;;;;25.89;41.82;102053.84;5102350;27;45893;-74
2022/10/11 14:50:17;;;;;;;;;5.00;5.00;;;;;25.91;41.93;102049.97;5107182;27;46228;-75
2022/10/11 14:52:43;;;;;;;;;6.33;4.67;;;;;25.91;41.94;102043.66;5113506;27;45644;-75
2022/10/11 14:55:08;;;;;;;;;4.67;4.67;;;;;25.93;41.57;102047.09;5110664;27;45793;-74
2022/10/11 14:57:33;;;;;;;;;7.00;7.00;;;;;25.94;41.57;102043.38;5109759;27;57595;-74
2022/10/11 14:59:59;;;;;;;;;6.67;4.00;;;;;25.95;41.67;102039.63;5113123;27;46412;-74
2022/10/11 15:02:24;;;;;;;;;4.33;4.33;;;;;25.95;42.38;102045.06;5105231;27;55541;-74
2022/10/11 15:04:49;;;;;;;;;6.00;5.00;;;;;25.96;42.07;102037.78;5111076;27;51426;-74
2022/10/11 15:07:14;;;;;;;;;5.00;4.00;;;;;25.95;41.83;102045.06;5107441;27;60353;-73
2022/10/11 15:09:40;;;;;;;;;4.00;4.00;;;;;25.92;41.78;102039.97;5109728;27;46163;-73
2022/10/11 15:12:05;;;;;;;;;6.33;5.67;;;;;25.92;42.10;102045.41;5113311;27;49062;-74
2022/10/11 15:14:30;;;;;;;;;3.00;1.33;;;;;25.90;42.13;102044.69;5108148;27;45322;-74
2022/10/11 15:16:56;;;;;;;;;5.33;4.67;;;;;25.91;42.19;102039.09;5104579;27;45556;-74
2022/10/11 15:19:23;;;;;;;;;7.33;4.67;;;;;25.92;42.36;102039.97;5116216;27;45890;-75
2022/10/11 15:21:49;;;;;;;;;4.00;4.00;;;;;25.90;42.98;102039.25;5107498;27;47065;-74
2022/10/11 15:24:18;;;;;;;;;4.67;3.67;;;;;25.89;42.36;102037.53;5111264;27;45589;-75
2022/10/11 15:26:44;;;;;;;;;5.00;4.00;;;;;25.88;42.60;102035.84;5114716;27;45568;-74
2022/10/11 15:29:11;;;;;;;;;9.00;6.67;;;;;25.87;42.04;102032.25;5114560;27;46928;-78
2022/10/11 15:31:36;;;;;;;;;4.67;3.33;;;;;25.85;42.57;102030.69;5112571;27;45460;-76
2022/10/11 15:34:01;;;;;;;;;3.33;3.33;;;;;25.83;42.42;102027.28;5098427;27;45614;-76
2022/10/11 15:36:28;;;;;;;;;4.67;4.00;;;;;25.82;42.40;102023.69;5112385;27;45464;-76
2022/10/11 15:38:53;;;;;;;;;4.00;4.00;;;;;25.74;42.87;102019.03;5105404;27;47269;-78
2022/10/11 15:41:19;;;;;;;;;5.67;3.33;;;;;25.75;42.41;102018.00;5107335;27;45476;-78
2022/10/11 15:43:47;;;;;;;;;4.33;4.33;;;;;25.73;42.57;102020.03;5111244;27;45721;-76
2022/10/11 15:46:16;;;;;;;;;8.33;6.33;;;;;25.73;41.46;102016.44;5109928;27;45514;-75
2022/10/11 15:48:42;;;;;;;;;7.67;6.00;;;;;25.77;41.39;102007.00;5103803;27;46188;-76
2022/10/11 15:51:08;;;;;;;;;8.67;4.33;;;;;25.74;41.48;102018.16;5110682;27;45381;-75
2022/10/11 15:53:34;;;;;;;;;7.33;7.33;;;;;25.72;40.99;102014.75;5109847;27;45322;-75
2022/10/11 15:56:18;;;;;;;;;8.67;7.33;;;;;25.61;41.59;102010.38;5115489;27;45374;-75
2022/10/11 15:58:44;;;;;;;;;6.67;5.00;;;;;25.53;41.26;102011.09;5112740;27;45567;-75
2022/10/11 16:01:18;;;;;;;;;9.00;7.00;;;;;25.47;41.83;102012.56;5107450;27;45406;-75
2022/10/11 16:03:45;;;;;;;;;6.33;5.00;;;;;25.45;42.13;102017.28;5116434;27;45527;-77
2022/10/11 16:06:10;;;;;;;;;5.67;4.67;;;;;25.44;42.19;102015.59;5103506;27;45411;-76
2022/10/11 16:08:36;;;;;;;;;5.33;4.33;;;;;25.46;42.09;102008.13;5117546;27;45466;-75
2022/10/11 16:11:03;;;;;;;;;6.00;6.00;;;;;25.47;42.44;102009.84;5109810;27;45388;-76
2022/10/11 16:13:29;;;;;;;;;5.00;5.00;;;;;25.47;42.11;102009.00;5112131;27;45883;-76
2022/10/11 16:15:54;;;;;;;;;7.33;5.67;;;;;25.48;42.14;102007.97;5113878;27;45483;-76
2022/10/11 16:18:21;;;;;;;;;5.00;5.00;;;;;25.49;42.56;102009.69;5106012;27;46604;-79
2022/10/11 16:20:49;;;;;;;;;6.67;6.67;;;;;25.49;42.70;102005.13;5103741;27;45797;-79
2022/10/11 16:23:15;;;;;;;;;6.33;5.67;;;;;25.48;42.68;102005.25;5110823;27;45502;-77
2022/10/11 16:25:40;;;;;;;;;5.67;5.67;;;;;25.48;41.50;102003.41;5105928;27;45409;-77
2022/10/11 16:28:07;;;;;;;;;8.33;8.00;;;;;25.52;41.07;102001.25;5104542;27;45917;-75
2022/10/11 16:30:33;;;;;;;;;7.33;6.00;;;;;25.47;41.37;102012.56;5102536;27;47449;-74
2022/10/11 16:32:58;;;;;;;;;8.00;7.33;;;;;25.37;41.48;102009.03;5101722;27;45896;-76
2022/10/11 16:35:23;;;;;;;;;6.67;4.00;;;;;25.35;41.87;102008.34;5105517;27;45264;-74
2022/10/11 16:37:49;;;;;;;;;6.00;5.67;;;;;25.32;42.03;102011.34;5106026;27;45453;-75
2022/10/11 16:40:16;;;;;;;;;6.00;6.00;;;;;25.27;42.03;102007.22;5108556;27;45511;-75
2022/10/11 16:42:42;;;;;;;;;4.67;4.00;;;;;25.30;42.29;102021.53;5111719;27;45477;-76
2022/10/11 16:45:08;;;;;;;;;5.33;5.00;;;;;25.31;42.54;102015.94;5115116;27;45370;-75
2022/10/11 16:47:34;;;;;;;;;7.33;5.33;;;;;25.31;42.61;102018.66;5103552;27;46299;-75
2022/10/11 16:49:59;;;;;;;;;7.33;6.67;;;;;25.32;42.46;102009.50;5113727;27;45493;-75
2022/10/11 16:52:25;;;;;;;;;8.00;7.00;;;;;25.34;42.59;102015.63;5109771;27;46586;-75
2022/10/11 16:54:50;;;;;;;;;7.00;7.00;;;;;25.35;42.74;102013.78;5112925;27;45417;-75
2022/10/11 16:57:19;;;;;;;;;9.00;7.00;;;;;25.35;42.71;102013.78;5111480;27;46194;-76
2022/10/11 16:59:45;;;;;;;;;5.33;5.33;;;;;25.37;42.68;102009.03;5114829;27;45339;-74
2022/10/11 17:02:16;;;;;;;;;8.67;5.67;;;;;25.37;42.71;102018.06;5111617;27;45382;-75
2022/10/11 17:04:42;;;;;;;;;6.00;6.00;;;;;25.31;43.03;102005.06;5108312;27;45500;-75
2022/10/11 17:07:11;;;;;;;;;5.33;5.33;;;;;25.38;42.71;102013.47;5113742;27;46184;-75
2022/10/11 17:09:38;;;;;;;;;7.33;7.33;;;;;25.38;42.83;102019.75;5109522;27;45427;-75
2022/10/11 17:12:03;;;;;;;;;8.00;6.00;;;;;25.42;43.06;102017.59;5110269;27;45316;-75
2022/10/11 17:14:29;;;;;;;;;7.00;5.33;;;;;25.43;42.79;102018.47;5108223;27;46250;-76
2022/10/11 17:16:54;;;;;;;;;7.67;4.00;;;;;25.44;42.84;102025.59;5111298;27;46892;-75
2022/10/11 17:19:19;;;;;;;;;8.67;5.67;;;;;25.44;43.21;102017.44;5108467;27;55216;-76
2022/10/11 17:21:44;;;;;;;;;7.67;7.33;;;;;25.45;41.46;102025.44;5108807;27;47871;-75
2022/10/11 17:24:10;;;;;;;;;10.33;9.00;;;;;25.51;40.90;102026.72;5110655;27;45391;-74
2022/10/11 17:26:35;;;;;;;;;7.00;6.67;;;;;25.48;40.76;102024.28;5096556;27;47310;-75
2022/10/11 17:29:01;;;;;;;;;7.33;6.00;;;;;25.42;41.03;102025.75;5104525;27;45616;-75
2022/10/11 17:31:27;;;;;;;;;7.33;6.00;;;;;25.36;41.48;102029.94;5110543;27;45633;-75
2022/10/11 17:33:54;;;;;;;;;8.67;7.00;;;;;25.26;41.32;102032.69;5107689;27;45443;-74
2022/10/11 17:36:26;;;;;;;;;8.33;6.67;;;;;25.20;41.79;102022.41;5106098;27;45503;-75
2022/10/11 17:38:52;;;;;;;;;11.00;9.67;;;;;25.16;41.88;102031.88;5108876;27;46862;-74
2022/10/11 17:41:18;;;;;;;;;10.67;9.00;;;;;25.16;42.18;102026.44;5114870;27;45696;-76
2022/10/11 17:43:44;;;;;;;;;10.00;10.00;;;;;25.19;42.04;102033.44;5109226;27;45419;-75
2022/10/11 17:46:11;;;;;;;;;8.67;6.00;;;;;25.22;42.09;102038.56;5114936;27;45618;-76
2022/10/11 17:48:38;;;;;;;;;10.00;6.67;;;;;25.23;42.34;102035.72;5088972;27;45431;-75
2022/10/11 17:51:09;;;;;;;;;9.33;7.67;;;;;25.23;42.00;102038.44;5112266;27;45737;-74
2022/10/11 17:53:35;;;;;;;;;7.00;7.00;;;;;25.26;41.17;102037.28;5100444;27;45552;-74
2022/10/11 17:56:13;;;;;;;;;9.00;9.00;;;;;25.28;41.38;102043.41;5113078;27;45476;-74
2022/10/11 17:58:38;;;;;;;;;6.00;6.00;;;;;25.24;40.92;102036.56;5106728;27;45983;-74
2022/10/11 18:01:07;;;;;;;;;6.00;6.00;;;;;25.19;41.10;102026.16;5108687;27;45517;-74
2022/10/11 18:03:33;;;;;;;;;9.00;8.00;;;;;25.13;41.05;102029.44;5111548;27;45425;-74
2022/10/11 18:06:02;;;;;;;;;6.67;6.67;;;;;25.05;41.23;102032.91;5098131;27;45723;-74
2022/10/11 18:08:27;;;;;;;;;8.00;8.00;;;;;25.04;41.22;102031.19;5108636;27;45906;-75
2022/10/11 18:10:53;;;;;;;;;8.33;7.00;;;;;24.96;41.34;102031.06;5106146;27;47113;-74